sensor_id;sensor_type;location;lat;lon;timestamp;temperature;humidity
20446;DHT22;10382;49.140;9.234;2023-01-16T00:01:18;5.30;99.90
20446;DHT22;10382;49.140;9.234;2023-01-16T00:03:45;5.40;99.90
20446;DHT22;10382;49.140;9.234;2023-01-16T00:06:12;5.50;99.90
20446;DHT22;10382;49.140;9.234;2023-01-16T00:08:39;5.50;99.90
20446;DHT22;10382;49.140;9.234;2023-01-16T00:11:08;5.50;99.90
20446;DHT22;10382;49.140;9.234;2023-01-16T00:13:36;5.50;99.90
20446;DHT22;10382;49.140;9.234;2023-01-16T00:16:03;5.40;99.90
20446;DHT22;10382;49.140;9.234;2023-01-16T00:18:30;5.40;99.90
20446;DHT22;10382;49.140;9.234;2023-01-16T00:20:57;5.30;99.90
20446;DHT22;10382;49.140;9.234;2023-01-16T00:23:24;5.30;99.90
20446;DHT22;10382;49.140;9.234;2023-01-16T00:25:51;5.30;99.90
20446;DHT22;10382;49.140;9.234;2023-01-16T00:28:19;5.30;99.90
20446;DHT22;10382;49.140;9.234;2023-01-16T00:30:46;5.30;99.90
20446;DHT22;10382;49.140;9.234;2023-01-16T00:33:13;5.30;99.90
20446;DHT22;10382;49.140;9.234;2023-01-16T00:35:40;5.30;99.90
20446;DHT22;10382;49.140;9.234;2023-01-16T00:38:07;5.30;99.90
20446;DHT22;10382;49.140;9.234;2023-01-16T00:40:34;5.40;99.90
20446;DHT22;10382;49.140;9.234;2023-01-16T00:43:01;5.30;99.90
20446;DHT22;10382;49.140;9.234;2023-01-16T00:45:29;5.30;99.90
20446;DHT22;10382;49.140;9.234;2023-01-16T00:47:56;5.30;99.90
20446;DHT22;10382;49.140;9.234;2023-01-16T00:50:24;5.30;99.90
20446;DHT22;10382;49.140;9.234;2023-01-16T00:52:51;5.30;99.90
20446;DHT22;10382;49.140;9.234;2023-01-16T00:55:17;5.40;99.90
20446;DHT22;10382;49.140;9.234;2023-01-16T00:57:44;5.40;99.90
20446;DHT22;10382;49.140;9.234;2023-01-16T01:00:12;5.40;99.90
20446;DHT22;10382;49.140;9.234;2023-01-16T01:02:40;5.40;99.90
20446;DHT22;10382;49.140;9.234;2023-01-16T01:05:07;5.40;99.90
20446;DHT22;10382;49.140;9.234;2023-01-16T01:07:35;5.50;99.90
20446;DHT22;10382;49.140;9.234;2023-01-16T01:10:03;5.40;99.90
20446;DHT22;10382;49.140;9.234;2023-01-16T01:12:30;5.40;99.90
20446;DHT22;10382;49.140;9.234;2023-01-16T01:14:57;5.50;99.90
20446;DHT22;10382;49.140;9.234;2023-01-16T01:17:24;5.50;99.90
20446;DHT22;10382;49.140;9.234;2023-01-16T01:19:52;5.50;99.90
20446;DHT22;10382;49.140;9.234;2023-01-16T01:22:19;5.50;99.90
20446;DHT22;10382;49.140;9.234;2023-01-16T01:24:47;5.60;99.90
20446;DHT22;10382;49.140;9.234;2023-01-16T01:27:14;5.60;99.90
20446;DHT22;10382;49.140;9.234;2023-01-16T01:29:41;5.50;99.90
20446;DHT22;10382;49.140;9.234;2023-01-16T01:32:08;5.50;99.90
20446;DHT22;10382;49.140;9.234;2023-01-16T01:34:35;5.60;99.90
20446;DHT22;10382;49.140;9.234;2023-01-16T01:37:04;5.60;99.90
20446;DHT22;10382;49.140;9.234;2023-01-16T01:39:31;5.60;99.90
20446;DHT22;10382;49.140;9.234;2023-01-16T01:41:58;5.60;99.90
20446;DHT22;10382;49.140;9.234;2023-01-16T01:44:49;5.60;99.90
20446;DHT22;10382;49.140;9.234;2023-01-16T01:47:20;5.50;99.90
20446;DHT22;10382;49.140;9.234;2023-01-16T01:49:48;5.50;99.90
20446;DHT22;10382;49.140;9.234;2023-01-16T01:52:18;5.50;99.90
20446;DHT22;10382;49.140;9.234;2023-01-16T01:54:50;5.50;99.90
20446;DHT22;10382;49.140;9.234;2023-01-16T01:57:20;5.30;99.90
20446;DHT22;10382;49.140;9.234;2023-01-16T01:59:57;5.30;99.90
20446;DHT22;10382;49.140;9.234;2023-01-16T02:02:29;5.30;99.90
20446;DHT22;10382;49.140;9.234;2023-01-16T02:04:57;5.30;99.90
20446;DHT22;10382;49.140;9.234;2023-01-16T02:07:26;5.20;99.90
20446;DHT22;10382;49.140;9.234;2023-01-16T02:09:59;5.20;99.90
20446;DHT22;10382;49.140;9.234;2023-01-16T02:12:29;5.20;99.90
20446;DHT22;10382;49.140;9.234;2023-01-16T02:14:56;5.20;99.90
20446;DHT22;10382;49.140;9.234;2023-01-16T02:17:24;5.10;99.90
20446;DHT22;10382;49.140;9.234;2023-01-16T02:20:16;5.10;99.90
20446;DHT22;10382;49.140;9.234;2023-01-16T02:26:20;4.90;99.90
20446;DHT22;10382;49.140;9.234;2023-01-16T02:29:28;4.90;99.90
20446;DHT22;10382;49.140;9.234;2023-01-16T02:32:09;4.90;99.90
20446;DHT22;10382;49.140;9.234;2023-01-16T02:34:58;4.90;99.90
20446;DHT22;10382;49.140;9.234;2023-01-16T02:37:32;4.90;99.90
20446;DHT22;10382;49.140;9.234;2023-01-16T02:40:11;4.90;99.90
20446;DHT22;10382;49.140;9.234;2023-01-16T02:42:43;4.90;99.90
20446;DHT22;10382;49.140;9.234;2023-01-16T02:45:17;4.90;99.90
20446;DHT22;10382;49.140;9.234;2023-01-16T02:47:55;4.90;99.90
20446;DHT22;10382;49.140;9.234;2023-01-16T02:50:28;4.90;99.90
20446;DHT22;10382;49.140;9.234;2023-01-16T02:53:00;4.90;99.90
20446;DHT22;10382;49.140;9.234;2023-01-16T02:55:40;4.90;99.90
20446;DHT22;10382;49.140;9.234;2023-01-16T02:58:10;4.90;99.90
20446;DHT22;10382;49.140;9.234;2023-01-16T03:00:48;5.00;99.90
20446;DHT22;10382;49.140;9.234;2023-01-16T03:03:36;5.00;99.90
20446;DHT22;10382;49.140;9.234;2023-01-16T03:06:10;5.10;99.90
20446;DHT22;10382;49.140;9.234;2023-01-16T03:08:49;5.20;99.90
20446;DHT22;10382;49.140;9.234;2023-01-16T03:11:20;5.20;99.90
20446;DHT22;10382;49.140;9.234;2023-01-16T03:14:17;5.10;99.90
20446;DHT22;10382;49.140;9.234;2023-01-16T03:16:56;5.10;99.90
20446;DHT22;10382;49.140;9.234;2023-01-16T03:19:41;5.20;99.90
20446;DHT22;10382;49.140;9.234;2023-01-16T03:22:12;5.30;99.90
20446;DHT22;10382;49.140;9.234;2023-01-16T03:25:01;5.30;99.90
20446;DHT22;10382;49.140;9.234;2023-01-16T03:27:40;5.20;99.90
20446;DHT22;10382;49.140;9.234;2023-01-16T03:30:13;5.30;99.90
20446;DHT22;10382;49.140;9.234;2023-01-16T03:32:44;5.30;99.90
20446;DHT22;10382;49.140;9.234;2023-01-16T03:35:18;5.30;99.90
20446;DHT22;10382;49.140;9.234;2023-01-16T03:37:48;5.30;99.90
20446;DHT22;10382;49.140;9.234;2023-01-16T03:40:20;5.30;99.90
20446;DHT22;10382;49.140;9.234;2023-01-16T03:42:52;5.30;99.90
20446;DHT22;10382;49.140;9.234;2023-01-16T03:45:23;5.30;99.90
20446;DHT22;10382;49.140;9.234;2023-01-16T03:48:00;5.30;99.90
20446;DHT22;10382;49.140;9.234;2023-01-16T03:50:30;5.30;99.90
20446;DHT22;10382;49.140;9.234;2023-01-16T03:53:03;5.30;99.90
20446;DHT22;10382;49.140;9.234;2023-01-16T03:55:35;5.30;99.90
20446;DHT22;10382;49.140;9.234;2023-01-16T03:58:08;5.30;99.90
20446;DHT22;10382;49.140;9.234;2023-01-16T04:00:39;5.40;99.90
20446;DHT22;10382;49.140;9.234;2023-01-16T04:03:14;5.40;99.90
20446;DHT22;10382;49.140;9.234;2023-01-16T04:05:49;5.40;99.90
20446;DHT22;10382;49.140;9.234;2023-01-16T04:08:22;5.40;99.90
20446;DHT22;10382;49.140;9.234;2023-01-16T04:10:52;5.50;99.90
20446;DHT22;10382;49.140;9.234;2023-01-16T04:13:22;5.50;99.90
20446;DHT22;10382;49.140;9.234;2023-01-16T04:15:54;5.60;99.90
20446;DHT22;10382;49.140;9.234;2023-01-16T04:18:25;5.50;99.90
20446;DHT22;10382;49.140;9.234;2023-01-16T04:20:54;5.50;99.90
20446;DHT22;10382;49.140;9.234;2023-01-16T04:23:21;5.50;99.90
20446;DHT22;10382;49.140;9.234;2023-01-16T04:25:48;5.50;99.90
20446;DHT22;10382;49.140;9.234;2023-01-16T04:28:15;5.50;99.90
20446;DHT22;10382;49.140;9.234;2023-01-16T04:30:42;5.60;99.90
20446;DHT22;10382;49.140;9.234;2023-01-16T04:33:09;5.60;99.90
20446;DHT22;10382;49.140;9.234;2023-01-16T04:35:35;5.60;99.90
20446;DHT22;10382;49.140;9.234;2023-01-16T04:38:04;5.70;99.90
20446;DHT22;10382;49.140;9.234;2023-01-16T04:40:30;5.60;99.90
20446;DHT22;10382;49.140;9.234;2023-01-16T04:42:57;5.60;99.90
20446;DHT22;10382;49.140;9.234;2023-01-16T04:45:24;5.60;99.90
20446;DHT22;10382;49.140;9.234;2023-01-16T04:47:51;5.60;99.90
20446;DHT22;10382;49.140;9.234;2023-01-16T04:50:18;5.60;99.90
20446;DHT22;10382;49.140;9.234;2023-01-16T04:52:45;5.60;99.90
20446;DHT22;10382;49.140;9.234;2023-01-16T04:55:14;5.70;99.90
20446;DHT22;10382;49.140;9.234;2023-01-16T04:57:41;5.70;99.90
20446;DHT22;10382;49.140;9.234;2023-01-16T05:00:10;5.70;99.90
20446;DHT22;10382;49.140;9.234;2023-01-16T05:02:37;5.60;99.90
20446;DHT22;10382;49.140;9.234;2023-01-16T05:05:05;5.60;99.90
20446;DHT22;10382;49.140;9.234;2023-01-16T05:07:32;5.50;99.90
20446;DHT22;10382;49.140;9.234;2023-01-16T05:09:59;5.50;99.90
20446;DHT22;10382;49.140;9.234;2023-01-16T05:12:27;5.50;99.90
20446;DHT22;10382;49.140;9.234;2023-01-16T05:14:54;5.30;99.90
20446;DHT22;10382;49.140;9.234;2023-01-16T05:17:20;5.20;99.90
20446;DHT22;10382;49.140;9.234;2023-01-16T05:19:50;5.20;99.90
20446;DHT22;10382;49.140;9.234;2023-01-16T05:22:17;5.10;99.90
20446;DHT22;10382;49.140;9.234;2023-01-16T05:24:44;5.00;99.90
20446;DHT22;10382;49.140;9.234;2023-01-16T05:27:11;5.00;99.90
20446;DHT22;10382;49.140;9.234;2023-01-16T05:29:39;4.90;99.90
20446;DHT22;10382;49.140;9.234;2023-01-16T05:32:06;4.80;99.90
20446;DHT22;10382;49.140;9.234;2023-01-16T05:34:33;4.80;99.90
20446;DHT22;10382;49.140;9.234;2023-01-16T05:37:00;4.80;99.90
20446;DHT22;10382;49.140;9.234;2023-01-16T05:39:26;4.80;99.90
20446;DHT22;10382;49.140;9.234;2023-01-16T05:41:53;4.80;99.90
20446;DHT22;10382;49.140;9.234;2023-01-16T05:44:20;4.80;99.90
20446;DHT22;10382;49.140;9.234;2023-01-16T05:46:48;4.90;99.90
20446;DHT22;10382;49.140;9.234;2023-01-16T05:49:16;4.90;99.90
20446;DHT22;10382;49.140;9.234;2023-01-16T05:51:43;4.90;99.90
20446;DHT22;10382;49.140;9.234;2023-01-16T05:54:10;4.90;99.90
20446;DHT22;10382;49.140;9.234;2023-01-16T05:56:38;4.80;99.90
20446;DHT22;10382;49.140;9.234;2023-01-16T05:59:05;4.80;99.90
20446;DHT22;10382;49.140;9.234;2023-01-16T06:01:31;4.80;99.90
20446;DHT22;10382;49.140;9.234;2023-01-16T06:04:00;4.80;99.90
20446;DHT22;10382;49.140;9.234;2023-01-16T06:06:26;4.80;99.90
20446;DHT22;10382;49.140;9.234;2023-01-16T06:08:53;4.80;99.90
20446;DHT22;10382;49.140;9.234;2023-01-16T06:11:20;4.80;99.90
20446;DHT22;10382;49.140;9.234;2023-01-16T06:13:47;4.80;99.90
20446;DHT22;10382;49.140;9.234;2023-01-16T06:16:14;4.80;99.90
20446;DHT22;10382;49.140;9.234;2023-01-16T06:18:40;4.70;99.90
20446;DHT22;10382;49.140;9.234;2023-01-16T06:21:09;4.70;99.90
20446;DHT22;10382;49.140;9.234;2023-01-16T06:23:35;4.70;99.90
20446;DHT22;10382;49.140;9.234;2023-01-16T06:26:02;4.70;99.90
20446;DHT22;10382;49.140;9.234;2023-01-16T06:28:31;4.80;99.90
20446;DHT22;10382;49.140;9.234;2023-01-16T06:30:58;4.80;99.90
20446;DHT22;10382;49.140;9.234;2023-01-16T06:33:25;4.80;99.90
20446;DHT22;10382;49.140;9.234;2023-01-16T06:35:51;4.90;99.90
20446;DHT22;10382;49.140;9.234;2023-01-16T06:38:20;5.00;99.90
20446;DHT22;10382;49.140;9.234;2023-01-16T06:40:46;4.90;99.90
20446;DHT22;10382;49.140;9.234;2023-01-16T06:43:14;5.00;99.90
20446;DHT22;10382;49.140;9.234;2023-01-16T06:45:42;5.00;99.90
20446;DHT22;10382;49.140;9.234;2023-01-16T06:48:10;5.10;99.90
20446;DHT22;10382;49.140;9.234;2023-01-16T06:50:37;5.10;99.90
20446;DHT22;10382;49.140;9.234;2023-01-16T06:53:04;5.10;99.90
20446;DHT22;10382;49.140;9.234;2023-01-16T06:55:32;5.20;99.90
20446;DHT22;10382;49.140;9.234;2023-01-16T06:57:59;5.20;99.90
20446;DHT22;10382;49.140;9.234;2023-01-16T07:00:26;5.20;99.90
20446;DHT22;10382;49.140;9.234;2023-01-16T07:02:54;5.20;99.90
20446;DHT22;10382;49.140;9.234;2023-01-16T07:05:22;5.30;99.90
20446;DHT22;10382;49.140;9.234;2023-01-16T07:07:49;5.30;99.90
20446;DHT22;10382;49.140;9.234;2023-01-16T07:10:17;5.30;99.90
20446;DHT22;10382;49.140;9.234;2023-01-16T07:12:47;5.30;99.90
20446;DHT22;10382;49.140;9.234;2023-01-16T07:15:14;5.40;99.90
20446;DHT22;10382;49.140;9.234;2023-01-16T07:17:58;5.40;99.90
20446;DHT22;10382;49.140;9.234;2023-01-16T07:20:43;5.40;99.90
20446;DHT22;10382;49.140;9.234;2023-01-16T07:23:32;5.40;99.90
20446;DHT22;10382;49.140;9.234;2023-01-16T07:26:02;5.40;99.90
20446;DHT22;10382;49.140;9.234;2023-01-16T07:28:31;5.40;99.90
20446;DHT22;10382;49.140;9.234;2023-01-16T07:30:58;5.40;99.90
20446;DHT22;10382;49.140;9.234;2023-01-16T07:33:28;5.40;99.90
20446;DHT22;10382;49.140;9.234;2023-01-16T07:35:55;5.40;99.90
20446;DHT22;10382;49.140;9.234;2023-01-16T07:38:22;5.40;99.90
20446;DHT22;10382;49.140;9.234;2023-01-16T07:40:49;5.30;99.90
20446;DHT22;10382;49.140;9.234;2023-01-16T07:43:16;5.30;99.90
20446;DHT22;10382;49.140;9.234;2023-01-16T07:45:44;5.20;99.90
20446;DHT22;10382;49.140;9.234;2023-01-16T07:48:17;5.20;99.90
20446;DHT22;10382;49.140;9.234;2023-01-16T07:50:49;5.20;99.90
20446;DHT22;10382;49.140;9.234;2023-01-16T07:53:16;5.20;99.90
20446;DHT22;10382;49.140;9.234;2023-01-16T07:55:47;5.20;99.90
20446;DHT22;10382;49.140;9.234;2023-01-16T07:58:14;5.30;99.90
20446;DHT22;10382;49.140;9.234;2023-01-16T08:00:40;5.30;99.90
20446;DHT22;10382;49.140;9.234;2023-01-16T08:03:09;5.30;99.90
20446;DHT22;10382;49.140;9.234;2023-01-16T08:05:36;5.30;99.90
20446;DHT22;10382;49.140;9.234;2023-01-16T08:08:03;5.30;99.90
20446;DHT22;10382;49.140;9.234;2023-01-16T08:10:30;5.30;99.90
20446;DHT22;10382;49.140;9.234;2023-01-16T08:12:57;5.30;99.90
20446;DHT22;10382;49.140;9.234;2023-01-16T08:15:24;5.30;99.90
20446;DHT22;10382;49.140;9.234;2023-01-16T08:17:51;5.40;99.90
20446;DHT22;10382;49.140;9.234;2023-01-16T08:20:19;5.40;99.90
20446;DHT22;10382;49.140;9.234;2023-01-16T08:22:48;5.40;99.90
20446;DHT22;10382;49.140;9.234;2023-01-16T08:25:16;5.40;99.90
20446;DHT22;10382;49.140;9.234;2023-01-16T08:27:43;5.40;99.90
20446;DHT22;10382;49.140;9.234;2023-01-16T08:30:12;5.40;99.90
20446;DHT22;10382;49.140;9.234;2023-01-16T08:32:39;5.50;99.90
20446;DHT22;10382;49.140;9.234;2023-01-16T08:35:07;5.50;99.90
20446;DHT22;10382;49.140;9.234;2023-01-16T08:37:35;5.50;99.90
20446;DHT22;10382;49.140;9.234;2023-01-16T08:40:03;5.50;99.90
20446;DHT22;10382;49.140;9.234;2023-01-16T08:42:30;5.40;99.90
20446;DHT22;10382;49.140;9.234;2023-01-16T08:45:15;5.40;99.90
20446;DHT22;10382;49.140;9.234;2023-01-16T08:48:00;5.50;99.90
20446;DHT22;10382;49.140;9.234;2023-01-16T08:50:46;5.70;99.90
20446;DHT22;10382;49.140;9.234;2023-01-16T08:53:32;5.90;99.90
20446;DHT22;10382;49.140;9.234;2023-01-16T08:55:59;5.90;99.90
20446;DHT22;10382;49.140;9.234;2023-01-16T08:58:26;6.00;99.90
20446;DHT22;10382;49.140;9.234;2023-01-16T09:00:53;6.00;99.90
20446;DHT22;10382;49.140;9.234;2023-01-16T09:03:20;6.10;99.90
20446;DHT22;10382;49.140;9.234;2023-01-16T09:05:47;5.90;99.90
20446;DHT22;10382;49.140;9.234;2023-01-16T09:08:14;5.90;99.90
20446;DHT22;10382;49.140;9.234;2023-01-16T09:10:42;5.90;99.90
20446;DHT22;10382;49.140;9.234;2023-01-16T09:13:30;5.90;99.90
20446;DHT22;10382;49.140;9.234;2023-01-16T09:16:14;5.90;99.90
20446;DHT22;10382;49.140;9.234;2023-01-16T09:18:41;5.90;99.90
20446;DHT22;10382;49.140;9.234;2023-01-16T09:21:08;6.00;99.90
20446;DHT22;10382;49.140;9.234;2023-01-16T09:23:34;5.90;99.90
20446;DHT22;10382;49.140;9.234;2023-01-16T09:26:03;6.00;99.90
20446;DHT22;10382;49.140;9.234;2023-01-16T09:28:30;6.00;99.90
20446;DHT22;10382;49.140;9.234;2023-01-16T09:30:57;6.10;99.90
20446;DHT22;10382;49.140;9.234;2023-01-16T09:33:23;6.20;99.90
20446;DHT22;10382;49.140;9.234;2023-01-16T09:35:50;6.30;99.90
20446;DHT22;10382;49.140;9.234;2023-01-16T09:38:17;6.20;99.90
20446;DHT22;10382;49.140;9.234;2023-01-16T09:40:45;6.20;99.90
20446;DHT22;10382;49.140;9.234;2023-01-16T09:43:30;6.20;99.90
20446;DHT22;10382;49.140;9.234;2023-01-16T09:46:10;6.10;99.90
20446;DHT22;10382;49.140;9.234;2023-01-16T09:48:45;6.10;99.90
20446;DHT22;10382;49.140;9.234;2023-01-16T09:51:15;6.00;99.90
20446;DHT22;10382;49.140;9.234;2023-01-16T09:53:46;5.80;99.90
20446;DHT22;10382;49.140;9.234;2023-01-16T09:56:36;5.80;99.90
20446;DHT22;10382;49.140;9.234;2023-01-16T09:59:27;5.70;99.90
20446;DHT22;10382;49.140;9.234;2023-01-16T10:02:03;5.50;99.90
20446;DHT22;10382;49.140;9.234;2023-01-16T10:04:31;5.50;99.90
20446;DHT22;10382;49.140;9.234;2023-01-16T10:07:11;5.50;99.90
20446;DHT22;10382;49.140;9.234;2023-01-16T10:09:51;5.50;99.90
20446;DHT22;10382;49.140;9.234;2023-01-16T10:12:29;5.50;99.90
20446;DHT22;10382;49.140;9.234;2023-01-16T10:15:09;5.60;99.90
20446;DHT22;10382;49.140;9.234;2023-01-16T10:17:45;5.70;99.90
20446;DHT22;10382;49.140;9.234;2023-01-16T10:23:16;5.90;99.90
20446;DHT22;10382;49.140;9.234;2023-01-16T10:25:52;5.90;99.90
20446;DHT22;10382;49.140;9.234;2023-01-16T10:28:32;6.00;99.90
20446;DHT22;10382;49.140;9.234;2023-01-16T10:31:08;6.10;99.90
20446;DHT22;10382;49.140;9.234;2023-01-16T10:33:41;6.20;99.90
20446;DHT22;10382;49.140;9.234;2023-01-16T10:36:12;6.20;99.90
20446;DHT22;10382;49.140;9.234;2023-01-16T10:38:44;6.30;99.90
20446;DHT22;10382;49.140;9.234;2023-01-16T10:41:15;6.30;99.90
20446;DHT22;10382;49.140;9.234;2023-01-16T10:43:56;6.40;99.90
20446;DHT22;10382;49.140;9.234;2023-01-16T10:46:42;6.50;99.90
20446;DHT22;10382;49.140;9.234;2023-01-16T10:49:28;6.50;99.90
20446;DHT22;10382;49.140;9.234;2023-01-16T10:51:58;6.50;99.90
20446;DHT22;10382;49.140;9.234;2023-01-16T10:54:26;6.50;99.90
20446;DHT22;10382;49.140;9.234;2023-01-16T10:56:53;6.60;99.90
20446;DHT22;10382;49.140;9.234;2023-01-16T10:59:23;6.70;99.90
20446;DHT22;10382;49.140;9.234;2023-01-16T11:01:54;6.70;99.90
20446;DHT22;10382;49.140;9.234;2023-01-16T11:04:33;6.80;99.90
20446;DHT22;10382;49.140;9.234;2023-01-16T11:07:15;6.90;99.90
20446;DHT22;10382;49.140;9.234;2023-01-16T11:09:44;7.00;99.90
20446;DHT22;10382;49.140;9.234;2023-01-16T11:12:17;7.00;99.90
20446;DHT22;10382;49.140;9.234;2023-01-16T11:15:07;7.10;99.90
20446;DHT22;10382;49.140;9.234;2023-01-16T11:17:55;7.20;99.90
20446;DHT22;10382;49.140;9.234;2023-01-16T11:20:50;7.20;99.90
20446;DHT22;10382;49.140;9.234;2023-01-16T11:23:20;7.20;99.90
20446;DHT22;10382;49.140;9.234;2023-01-16T11:25:48;7.20;99.90
20446;DHT22;10382;49.140;9.234;2023-01-16T11:28:20;7.30;99.90
20446;DHT22;10382;49.140;9.234;2023-01-16T11:30:48;7.20;99.90
20446;DHT22;10382;49.140;9.234;2023-01-16T11:33:21;7.20;99.90
20446;DHT22;10382;49.140;9.234;2023-01-16T11:35:52;7.20;99.90
20446;DHT22;10382;49.140;9.234;2023-01-16T11:38:21;7.20;99.90
20446;DHT22;10382;49.140;9.234;2023-01-16T11:40:50;7.20;99.90
20446;DHT22;10382;49.140;9.234;2023-01-16T11:43:21;7.20;99.90
20446;DHT22;10382;49.140;9.234;2023-01-16T11:46:31;7.20;99.90
20446;DHT22;10382;49.140;9.234;2023-01-16T11:49:03;7.10;99.90
20446;DHT22;10382;49.140;9.234;2023-01-16T11:51:32;7.10;99.90
20446;DHT22;10382;49.140;9.234;2023-01-16T11:54:00;7.00;99.90
20446;DHT22;10382;49.140;9.234;2023-01-16T11:56:42;7.00;99.90
20446;DHT22;10382;49.140;9.234;2023-01-16T11:59:36;7.00;99.90
20446;DHT22;10382;49.140;9.234;2023-01-16T12:02:15;7.10;99.90
20446;DHT22;10382;49.140;9.234;2023-01-16T12:04:53;7.00;99.90
20446;DHT22;10382;49.140;9.234;2023-01-16T12:07:50;7.00;99.90
20446;DHT22;10382;49.140;9.234;2023-01-16T12:10:29;7.00;99.90
20446;DHT22;10382;49.140;9.234;2023-01-16T12:13:03;7.00;99.90
20446;DHT22;10382;49.140;9.234;2023-01-16T12:15:59;7.20;99.90
20446;DHT22;10382;49.140;9.234;2023-01-16T12:18:36;7.20;99.90
20446;DHT22;10382;49.140;9.234;2023-01-16T12:21:22;7.20;99.90
20446;DHT22;10382;49.140;9.234;2023-01-16T12:24:07;7.30;99.90
20446;DHT22;10382;49.140;9.234;2023-01-16T12:26:42;7.30;99.90
20446;DHT22;10382;49.140;9.234;2023-01-16T12:29:19;7.40;99.90
20446;DHT22;10382;49.140;9.234;2023-01-16T12:32:08;7.40;99.90
20446;DHT22;10382;49.140;9.234;2023-01-16T12:37:49;7.40;99.90
20446;DHT22;10382;49.140;9.234;2023-01-16T12:40:28;7.40;99.90
20446;DHT22;10382;49.140;9.234;2023-01-16T12:43:03;7.40;99.90
20446;DHT22;10382;49.140;9.234;2023-01-16T12:45:49;7.30;99.90
20446;DHT22;10382;49.140;9.234;2023-01-16T12:48:48;7.30;99.90
20446;DHT22;10382;49.140;9.234;2023-01-16T12:51:31;7.30;99.90
20446;DHT22;10382;49.140;9.234;2023-01-16T12:54:24;7.40;99.90
20446;DHT22;10382;49.140;9.234;2023-01-16T12:57:14;7.40;99.90
20446;DHT22;10382;49.140;9.234;2023-01-16T12:59:45;7.40;99.90
20446;DHT22;10382;49.140;9.234;2023-01-16T13:02:20;7.40;99.90
20446;DHT22;10382;49.140;9.234;2023-01-16T13:04:51;7.40;99.90
20446;DHT22;10382;49.140;9.234;2023-01-16T13:07:18;7.40;99.90
20446;DHT22;10382;49.140;9.234;2023-01-16T13:09:49;7.50;99.90
20446;DHT22;10382;49.140;9.234;2023-01-16T13:12:18;7.60;99.90
20446;DHT22;10382;49.140;9.234;2023-01-16T13:15:06;7.70;99.90
20446;DHT22;10382;49.140;9.234;2023-01-16T13:17:41;7.80;99.90
20446;DHT22;10382;49.140;9.234;2023-01-16T13:20:11;7.80;99.90
20446;DHT22;10382;49.140;9.234;2023-01-16T13:22:43;7.80;99.90
20446;DHT22;10382;49.140;9.234;2023-01-16T13:25:17;7.80;99.90
20446;DHT22;10382;49.140;9.234;2023-01-16T13:27:51;7.80;99.90
20446;DHT22;10382;49.140;9.234;2023-01-16T13:30:21;7.70;99.90
20446;DHT22;10382;49.140;9.234;2023-01-16T13:32:52;7.80;99.90
20446;DHT22;10382;49.140;9.234;2023-01-16T13:35:23;7.90;99.90
20446;DHT22;10382;49.140;9.234;2023-01-16T13:38:16;8.00;99.90
20446;DHT22;10382;49.140;9.234;2023-01-16T13:41:02;8.00;99.90
20446;DHT22;10382;49.140;9.234;2023-01-16T13:43:39;8.10;99.90
20446;DHT22;10382;49.140;9.234;2023-01-16T13:46:25;8.30;99.90
20446;DHT22;10382;49.140;9.234;2023-01-16T13:48:54;8.20;99.90
20446;DHT22;10382;49.140;9.234;2023-01-16T13:51:23;8.20;99.90
20446;DHT22;10382;49.140;9.234;2023-01-16T13:53:54;8.30;99.90
20446;DHT22;10382;49.140;9.234;2023-01-16T13:56:24;8.40;99.90
20446;DHT22;10382;49.140;9.234;2023-01-16T13:58:55;8.40;99.90
20446;DHT22;10382;49.140;9.234;2023-01-16T14:01:33;8.40;99.90
20446;DHT22;10382;49.140;9.234;2023-01-16T14:04:27;8.40;99.90
20446;DHT22;10382;49.140;9.234;2023-01-16T14:06:55;8.50;99.90
20446;DHT22;10382;49.140;9.234;2023-01-16T14:09:57;8.60;99.90
20446;DHT22;10382;49.140;9.234;2023-01-16T14:12:33;8.60;99.90
20446;DHT22;10382;49.140;9.234;2023-01-16T14:15:15;8.50;99.90
20446;DHT22;10382;49.140;9.234;2023-01-16T14:18:14;8.40;99.90
20446;DHT22;10382;49.140;9.234;2023-01-16T14:20:44;8.40;99.90
20446;DHT22;10382;49.140;9.234;2023-01-16T14:23:18;8.50;99.90
20446;DHT22;10382;49.140;9.234;2023-01-16T14:26:04;8.40;99.90
20446;DHT22;10382;49.140;9.234;2023-01-16T14:28:34;8.40;99.90
20446;DHT22;10382;49.140;9.234;2023-01-16T14:31:01;8.50;99.90
20446;DHT22;10382;49.140;9.234;2023-01-16T14:33:28;8.50;99.90
20446;DHT22;10382;49.140;9.234;2023-01-16T14:35:57;8.60;99.90
20446;DHT22;10382;49.140;9.234;2023-01-16T14:38:27;8.80;99.90
20446;DHT22;10382;49.140;9.234;2023-01-16T14:40:58;9.00;99.90
20446;DHT22;10382;49.140;9.234;2023-01-16T14:44:02;9.00;99.90
20446;DHT22;10382;49.140;9.234;2023-01-16T14:47:08;8.80;99.90
20446;DHT22;10382;49.140;9.234;2023-01-16T14:50:05;8.90;99.90
20446;DHT22;10382;49.140;9.234;2023-01-16T14:53:13;9.30;99.90
20446;DHT22;10382;49.140;9.234;2023-01-16T14:56:04;9.20;99.90
20446;DHT22;10382;49.140;9.234;2023-01-16T14:58:35;9.20;99.90
20446;DHT22;10382;49.140;9.234;2023-01-16T15:01:07;9.10;99.90
20446;DHT22;10382;49.140;9.234;2023-01-16T15:03:54;9.00;99.90
20446;DHT22;10382;49.140;9.234;2023-01-16T15:06:21;8.90;99.90
20446;DHT22;10382;49.140;9.234;2023-01-16T15:08:49;8.60;99.90
20446;DHT22;10382;49.140;9.234;2023-01-16T15:11:23;8.50;99.90
20446;DHT22;10382;49.140;9.234;2023-01-16T15:14:12;8.50;99.90
20446;DHT22;10382;49.140;9.234;2023-01-16T15:17:11;8.60;99.90
20446;DHT22;10382;49.140;9.234;2023-01-16T15:20:17;8.50;99.90
20446;DHT22;10382;49.140;9.234;2023-01-16T15:23:05;8.40;99.90
20446;DHT22;10382;49.140;9.234;2023-01-16T15:25:54;8.30;99.90
20446;DHT22;10382;49.140;9.234;2023-01-16T15:28:29;8.10;99.90
20446;DHT22;10382;49.140;9.234;2023-01-16T15:31:02;8.10;99.90
20446;DHT22;10382;49.140;9.234;2023-01-16T15:33:33;8.00;99.90
20446;DHT22;10382;49.140;9.234;2023-01-16T15:36:22;8.00;99.90
20446;DHT22;10382;49.140;9.234;2023-01-16T15:38:52;7.90;99.90
20446;DHT22;10382;49.140;9.234;2023-01-16T15:41:21;7.80;99.90
20446;DHT22;10382;49.140;9.234;2023-01-16T15:44:13;7.70;99.90
20446;DHT22;10382;49.140;9.234;2023-01-16T15:49:58;7.60;99.90
20446;DHT22;10382;49.140;9.234;2023-01-16T15:52:29;7.60;99.90
20446;DHT22;10382;49.140;9.234;2023-01-16T15:54:57;7.60;99.90
20446;DHT22;10382;49.140;9.234;2023-01-16T15:57:25;7.60;99.90
20446;DHT22;10382;49.140;9.234;2023-01-16T15:59:54;7.60;99.90
20446;DHT22;10382;49.140;9.234;2023-01-16T16:02:23;7.50;99.90
20446;DHT22;10382;49.140;9.234;2023-01-16T16:04:53;7.60;99.90
20446;DHT22;10382;49.140;9.234;2023-01-16T16:07:22;7.50;99.90
20446;DHT22;10382;49.140;9.234;2023-01-16T16:09:52;7.50;99.90
20446;DHT22;10382;49.140;9.234;2023-01-16T16:12:21;7.40;99.90
20446;DHT22;10382;49.140;9.234;2023-01-16T16:14:47;7.30;99.90
20446;DHT22;10382;49.140;9.234;2023-01-16T16:17:33;7.30;99.90
20446;DHT22;10382;49.140;9.234;2023-01-16T16:20:38;7.30;99.90
20446;DHT22;10382;49.140;9.234;2023-01-16T16:23:11;7.20;99.90
20446;DHT22;10382;49.140;9.234;2023-01-16T16:25:46;7.20;99.90
20446;DHT22;10382;49.140;9.234;2023-01-16T16:28:19;7.20;99.90
20446;DHT22;10382;49.140;9.234;2023-01-16T16:30:47;7.10;99.90
20446;DHT22;10382;49.140;9.234;2023-01-16T16:33:20;7.00;99.90
20446;DHT22;10382;49.140;9.234;2023-01-16T16:35:50;6.90;99.90